Live Oak, Florida
Current Conditions -  °F | °C
As of 2:55 PM on Thursday 30 Oct 2014 (Local Time) from K24J Reporting Station
Overcast Overcast  
Wind Chill: 79°   Ceiling: 3200
Heat Index: 80°   Visibility: 2mi
Dew Point: 61°   Wind: 8mph
Humidity: 54%   Direction: 300°WNW
Pressure: 29.95"   Gusts: NA
Location:  30.3°N, 82.98°W
Report Text: K24J 301855Z AUTO 30007KT 2SM BKN032 OVC048 26/16 A2995 RMK AO1
Loading
Personal Weather Stations






























Interactive Weather Map
Tropical Storm Tracking
New forecast layout! Learn more

10-Day Weather Forecast

Advertisements
Track Severe Weather on mobile